Time;durP1;ratioP1;P1;durP2;ratioP2;P2;SDS_P1;SDS_P2;PMS_P1;PMS_P2;Temp;Humidity;BMP_temperature;BMP_pressure;BME280_temperature;BME280_humidity;BME280_pressure;Samples;Min_cycle;Max_cycle;Signal;HPM_P1;HPM_P2
2021/06/28 00:01:10;;;;;;;7.47;5.20;;;;;;;27.92;50.81;101331.22;1621251;88;21094;-54
2021/06/28 00:03:36;;;;;;;7.58;4.92;;;;;;;27.92;50.99;101336.58;1615951;88;21697;-54
2021/06/28 00:06:05;;;;;;;5.22;4.72;;;;;;;27.91;51.15;101337.53;1619097;88;21550;-55
2021/06/28 00:08:32;;;;;;;5.47;4.90;;;;;;;27.89;51.25;101340.83;1618009;88;21586;-55
2021/06/28 00:10:59;;;;;;;5.22;4.72;;;;;;;27.89;51.28;101343.50;1614045;88;21114;-55
2021/06/28 00:13:27;;;;;;;7.05;5.40;;;;;;;27.88;51.25;101343.16;1640916;87;21545;-54
2021/06/28 00:15:54;;;;;;;7.78;4.55;;;;;;;27.86;51.25;101346.45;1616465;88;21093;-54
2021/06/28 00:18:21;;;;;;;8.68;4.87;;;;;;;27.85;51.24;101342.06;1627452;87;21034;-56
2021/06/28 00:20:49;;;;;;;5.50;5.00;;;;;;;27.88;51.19;101352.52;1625389;87;21570;-55
2021/06/28 00:23:17;;;;;;;6.78;4.87;;;;;;;27.86;51.23;101351.80;1614325;88;21074;-55
2021/06/28 00:25:44;;;;;;;5.40;4.90;;;;;;;27.84;51.20;101345.73;1620890;88;21172;-55
2021/06/28 00:28:10;;;;;;;5.83;4.90;;;;;;;27.83;51.06;101346.70;1611918;88;21081;-54
2021/06/28 00:30:41;;;;;;;6.87;5.05;;;;;;;27.82;50.98;101347.69;1619086;88;21018;-54
2021/06/28 00:33:14;;;;;;;7.00;4.70;;;;;;;27.80;50.98;101350.98;1608884;88;21600;-53
2021/06/28 00:35:41;;;;;;;5.20;4.35;;;;;;;27.80;51.03;101352.33;1612113;88;21072;-53
2021/06/28 00:38:08;;;;;;;5.65;5.03;;;;;;;27.80;51.06;101355.00;1612683;88;21101;-56
2021/06/28 00:40:37;;;;;;;5.78;4.40;;;;;;;27.78;51.14;101352.94;1613700;88;21568;-54
2021/06/28 00:43:04;;;;;;;5.20;4.70;;;;;;;27.78;51.21;101355.62;1641397;86;21088;-54
2021/06/28 00:45:35;;;;;;;5.20;4.50;;;;;;;27.78;51.27;101356.95;1617189;88;21113;-53
2021/06/28 00:48:08;;;;;;;4.72;4.28;;;;;;;27.78;51.26;101355.62;1602628;89;21156;-54
2021/06/28 00:50:40;;;;;;;7.53;4.42;;;;;;;27.78;51.21;101355.62;1601319;89;21093;-54
2021/06/28 00:53:10;;;;;;;6.60;3.55;;;;;;;27.77;51.35;101355.23;1582668;89;21071;-54
2021/06/28 00:55:38;;;;;;;4.75;3.92;;;;;;;27.76;51.47;101351.71;1614993;88;21590;-54
2021/06/28 00:58:05;;;;;;;9.98;8.98;;;;;;;27.72;51.72;101364.16;1608910;88;21098;-54
2021/06/28 01:00:32;;;;;;;4.75;4.17;;;;;;;27.72;51.72;101364.16;1575560;89;21575;-53
2021/06/28 01:02:59;;;;;;;4.37;3.60;;;;;;;27.72;52.12;101364.98;1557428;92;21107;-53
2021/06/28 01:05:31;;;;;;;4.87;3.83;;;;;;;27.71;52.29;101359.77;1555772;92;21182;-54
2021/06/28 01:07:57;;;;;;;6.10;4.03;;;;;;;27.71;52.55;101357.09;1550522;92;21091;-54
2021/06/28 01:10:24;;;;;;;5.67;4.12;;;;;;;27.68;52.57;101358.67;1585077;89;21056;-53
2021/06/28 01:12:51;;;;;;;4.80;3.80;;;;;;;27.66;52.77;101359.29;1593812;89;21111;-53
2021/06/28 01:15:21;;;;;;;4.80;3.52;;;;;;;27.64;52.79;101358.57;1613662;88;21067;-53
2021/06/28 01:17:48;;;;;;;4.80;3.80;;;;;;;27.62;52.65;101358.70;1603224;89;21621;-54
2021/06/28 01:20:21;;;;;;;3.60;3.30;;;;;;;27.61;52.84;101368.20;1604234;88;21609;-55
2021/06/28 01:22:51;;;;;;;5.42;3.45;;;;;;;27.61;52.82;101365.53;1505714;93;21549;-55
2021/06/28 01:25:21;;;;;;;3.60;3.30;;;;;;;27.61;52.95;101365.05;1508676;94;21168;-55
2021/06/28 01:27:48;;;;;;;4.78;3.52;;;;;;;27.62;53.00;101365.87;1533102;92;21129;-54
2021/06/28 01:30:19;;;;;;;3.50;3.20;;;;;;;27.62;53.26;101367.20;1536185;93;21581;-54
2021/06/28 01:32:46;;;;;;;;;;;;;;;27.62;53.40;101372.55;1501575;95;21113;-54
2021/06/28 01:35:14;;;;;;;6.03;3.85;;;;;;;27.58;53.44;101365.28;1500058;95;20186;-54
2021/06/28 01:37:41;;;;;;;5.22;4.37;;;;;;;27.58;53.44;101365.28;1490449;95;21116;-56
2021/06/28 01:40:10;;;;;;;3.85;3.50;;;;;;;27.61;53.24;101371.73;1486218;94;21148;-54
2021/06/28 01:42:37;;;;;;;5.37;3.62;;;;;;;27.59;53.14;101367.48;1487425;95;21104;-55
2021/06/28 01:45:08;;;;;;;4.65;4.12;;;;;;;27.59;53.47;101370.16;1486819;94;21112;-54
2021/06/28 01:47:34;;;;;;;4.33;3.67;;;;;;;27.59;53.12;101370.16;1421875;100;21659;-55
2021/06/28 01:50:01;;;;;;;6.55;3.70;;;;;;;27.57;53.20;101374.78;1423274;100;21180;-62
2021/06/28 01:52:28;;;;;;;5.08;3.83;;;;;;;27.57;53.03;101378.79;1447418;98;21106;-53
2021/06/28 01:54:55;;;;;;;4.28;3.87;;;;;;;27.55;53.46;101379.41;1444669;99;21098;-54
2021/06/28 01:57:22;;;;;;;6.22;3.92;;;;;;;27.52;53.41;101372.95;1446700;98;21211;-55
2021/06/28 01:59:49;;;;;;;5.22;3.62;;;;;;;27.48;53.24;101388.89;1445596;98;21137;-54
2021/06/28 02:02:15;;;;;;;3.90;3.35;;;;;;;27.48;53.38;101388.89;1444456;97;21175;-54
2021/06/28 02:04:42;;;;;;;7.65;4.05;;;;;;;27.48;53.55;101395.58;1431307;99;22314;-54
2021/06/28 02:07:10;;;;;;;6.90;4.00;;;;;;;27.48;53.67;101399.58;1444862;99;21211;-55
2021/06/28 02:09:37;;;;;;;7.80;4.40;;;;;;;27.47;53.66;101400.58;1446024;99;21133;-57
2021/06/28 02:12:05;;;;;;;7.08;3.52;;;;;;;27.45;53.57;101402.52;1438624;98;21614;-53
2021/06/28 02:14:32;;;;;;;4.80;3.90;;;;;;;27.42;53.68;101410.78;1447148;99;21715;-59
2021/06/28 02:16:59;;;;;;;6.92;3.87;;;;;;;27.42;54.25;101409.44;1448509;99;21166;-53
2021/06/28 02:19:26;;;;;;;5.58;3.67;;;;;;;27.42;54.25;101409.44;1456340;98;21124;-53
2021/06/28 02:21:53;;;;;;;5.20;3.42;;;;;;;27.43;54.07;101412.50;1467954;97;21685;-55
2021/06/28 02:24:20;;;;;;;6.70;4.08;;;;;;;27.41;53.87;101408.58;1467510;98;21170;-55
2021/06/28 02:26:47;;;;;;;6.62;4.28;;;;;;;27.37;53.80;101413.34;1470866;97;21185;-56
2021/06/28 02:29:14;;;;;;;4.33;3.40;;;;;;;27.38;53.87;101416.39;1484617;93;21086;-53
2021/06/28 02:31:41;;;;;;;3.83;3.47;;;;;;;27.41;53.66;101419.79;1515286;92;21117;-53
2021/06/28 02:34:07;;;;;;;4.22;3.80;;;;;;;27.43;53.34;101412.50;1517820;93;21588;-54
2021/06/28 02:36:34;;;;;;;3.85;3.55;;;;;;;27.45;52.99;101419.90;1523799;93;21098;-54
2021/06/28 02:39:01;;;;;;;4.33;3.92;;;;;;;27.43;52.92;101422.67;1511636;93;21138;-53
2021/06/28 02:41:27;;;;;;;4.60;3.70;;;;;;;27.46;52.66;101420.24;1521200;93;21138;-53
2021/06/28 02:43:54;;;;;;;5.80;3.75;;;;;;;27.45;52.74;101421.23;1544112;88;21038;-53
2021/06/28 02:46:22;;;;;;;4.22;3.80;;;;;;;27.42;52.85;101425.48;1642111;87;21101;-53
2021/06/28 02:48:49;;;;;;;4.80;3.83;;;;;;;27.42;52.85;101425.48;1643120;87;21061;-54
2021/06/28 02:51:17;;;;;;;4.65;3.60;;;;;;;27.38;52.69;101424.41;1614532;88;21112;-54
2021/06/28 02:53:44;;;;;;;5.95;3.42;;;;;;;27.39;52.73;101423.42;1618048;88;21097;-55
2021/06/28 02:56:14;;;;;;;4.08;3.67;;;;;;;27.35;52.61;101419.30;1618589;88;21030;-55
2021/06/28 02:58:47;;;;;;;9.28;3.75;;;;;;;27.37;52.59;101425.84;1619037;88;21046;-55
2021/06/28 03:01:15;;;;;;;4.90;3.70;;;;;;;27.34;52.67;101428.30;1639896;87;21116;-53
2021/06/28 03:03:42;;;;;;;4.30;3.87;;;;;;;27.36;52.81;101431.70;1643098;87;21073;-53
2021/06/28 03:06:09;;;;;;;4.20;3.70;;;;;;;27.37;52.89;101429.38;1615095;88;21109;-54
2021/06/28 03:08:35;;;;;;;4.97;4.20;;;;;;;27.36;52.87;101433.04;1617376;88;21058;-57
2021/06/28 03:11:04;;;;;;;5.83;4.03;;;;;;;27.42;53.00;101434.83;1617184;88;21058;-54
2021/06/28 03:13:34;;;;;;;7.67;4.20;;;;;;;27.42;53.00;101434.83;1612198;88;21552;-54
2021/06/28 03:16:01;;;;;;;9.05;4.08;;;;;;;27.43;52.93;101436.04;1616746;88;21574;-53
2021/06/28 03:18:27;;;;;;;5.35;4.12;;;;;;;27.42;52.93;101441.52;1616683;88;21031;-54
2021/06/28 03:20:54;;;;;;;8.78;4.00;;;;;;;27.42;52.93;101441.52;1612130;88;21069;-53
2021/06/28 03:23:21;;;;;;;7.12;4.53;;;;;;;27.38;53.30;101439.11;1612110;88;21062;-54
2021/06/28 03:25:48;;;;;;;6.17;4.37;;;;;;;27.36;53.06;101425.50;1623391;88;21058;-53
2021/06/28 03:28:14;;;;;;;5.05;4.28;;;;;;;27.36;53.06;101425.50;1619800;88;21589;-59
2021/06/28 03:30:41;;;;;;;6.72;4.72;;;;;;;27.37;52.76;101430.71;1622676;88;21082;-54
2021/06/28 03:33:08;;;;;;;5.40;4.15;;;;;;;27.36;52.75;101434.38;1621222;88;21045;-53
2021/06/28 03:35:35;;;;;;;8.53;4.15;;;;;;;27.36;52.75;101434.38;1631654;86;21027;-53
2021/06/28 03:38:02;;;;;;;8.28;4.85;;;;;;;27.37;52.65;101436.06;1633636;86;21046;-54
2021/06/28 03:40:32;;;;;;;5.60;4.10;;;;;;;27.41;52.67;101437.98;1614292;87;21092;-54
2021/06/28 03:42:57;;;;;;;6.15;4.00;;;;;;;27.46;52.51;101444.30;1594769;87;21113;-53
2021/06/28 03:45:24;;;;;;;4.90;4.03;;;;;;;27.46;52.51;101444.30;1597546;87;21077;-62
2021/06/28 03:47:51;;;;;;;7.75;4.10;;;;;;;27.57;52.73;101444.28;1588667;89;21145;-55
2021/06/28 03:50:17;;;;;;;8.55;3.98;;;;;;;27.84;52.36;101449.53;1594747;88;21070;-59
2021/06/28 03:52:45;;;;;;;5.70;3.80;;;;;;;28.26;51.33;101454.50;1594921;88;21101;-55
2021/06/28 03:55:12;;;;;;;7.53;4.20;;;;;;;28.76;50.47;101441.69;1604728;88;21538;-54
2021/06/28 03:57:39;;;;;;;4.33;3.92;;;;;;;29.37;49.04;101447.01;1591762;89;21175;-54
2021/06/28 04:00:11;;;;;;;5.58;4.45;;;;;;;29.93;47.54;101444.09;1600733;87;21059;-56
2021/06/28 04:02:40;;;;;;;5.03;3.62;;;;;;;30.41;46.11;101443.61;1634705;86;21059;-54
2021/06/28 04:05:09;;;;;;;9.60;3.98;;;;;;;30.78;45.09;101445.00;1593318;88;21109;-53
2021/06/28 04:07:36;;;;;;;9.48;4.42;;;;;;;30.95;44.47;101446.10;1595101;88;21640;-56
2021/06/28 04:10:06;;;;;;;5.17;4.17;;;;;;;30.88;44.59;101447.67;1629858;87;21138;-53
2021/06/28 04:12:33;;;;;;;4.10;3.70;;;;;;;30.73;44.61;101451.29;1606871;88;21049;-52
2021/06/28 04:15:01;;;;;;;6.40;4.53;;;;;;;30.56;44.68;101445.84;1607719;88;21128;-52
2021/06/28 04:17:28;;;;;;;4.97;3.95;;;;;;;30.42;45.03;101453.83;1604995;88;21058;-52
2021/06/28 04:19:55;;;;;;;9.03;4.58;;;;;;;30.33;44.95;101448.86;1605730;89;21118;-53
2021/06/28 04:22:22;;;;;;;4.65;4.00;;;;;;;30.17;45.15;101456.59;1607489;88;21562;-52
2021/06/28 04:24:49;;;;;;;8.28;3.72;;;;;;;30.02;45.67;101455.83;1605363;88;21093;-57
2021/06/28 04:27:16;;;;;;;4.35;3.95;;;;;;;29.82;46.43;101464.34;1603936;88;21065;-53
2021/06/28 04:29:43;;;;;;;4.95;3.83;;;;;;;29.62;46.89;101466.63;1608172;88;21745;-55
2021/06/28 04:32:10;;;;;;;4.87;4.33;;;;;;;29.42;47.47;101475.61;1604923;88;21073;-52
2021/06/28 04:34:42;;;;;;;5.03;4.17;;;;;;;29.24;47.92;101471.89;1608677;87;21120;-53
2021/06/28 04:37:06;;;;;;;4.53;4.03;;;;;;;29.10;48.28;101469.55;1603622;88;21681;-53
2021/06/28 04:39:32;;;;;;;4.70;3.85;;;;;;;28.98;48.38;101476.33;1607798;88;21202;-53
2021/06/28 04:41:59;;;;;;;6.40;4.05;;;;;;;28.89;48.91;101475.78;1604769;88;21101;-54
2021/06/28 04:44:26;;;;;;;6.92;4.22;;;;;;;28.83;49.04;101478.99;1606292;88;21085;-57
2021/06/28 04:46:53;;;;;;;4.25;3.85;;;;;;;28.77;49.47;101480.86;1606902;89;21619;-54
2021/06/28 04:49:20;;;;;;;8.25;4.37;;;;;;;28.74;49.65;101479.81;1604799;88;21029;-55
2021/06/28 04:51:46;;;;;;;5.67;3.75;;;;;;;28.70;48.90;101479.72;1606891;88;21061;-58
2021/06/28 04:54:13;;;;;;;6.30;4.75;;;;;;;28.65;49.16;101482.41;1600519;88;21104;-56
2021/06/28 04:56:40;;;;;;;6.58;4.15;;;;;;;28.66;49.06;101480.10;1605742;88;21072;-53
2021/06/28 04:59:07;;;;;;;4.55;3.90;;;;;;;28.66;49.12;101482.30;1617673;87;21063;-55
2021/06/28 05:01:34;;;;;;;7.37;4.15;;;;;;;28.66;49.12;101484.98;1631579;87;21208;-55
2021/06/28 05:04:00;;;;;;;5.30;4.40;;;;;;;28.64;48.84;101478.91;1632424;87;21085;-54
2021/06/28 05:06:27;;;;;;;7.17;4.25;;;;;;;28.65;49.10;101487.77;1606537;87;21607;-52
2021/06/28 05:08:54;;;;;;;6.78;4.15;;;;;;;28.68;49.20;101488.86;1595261;88;21083;-52
2021/06/28 05:11:20;;;;;;;4.78;3.80;;;;;;;28.77;49.02;101491.58;1597448;87;21077;-55
2021/06/28 05:13:47;;;;;;;4.65;4.15;;;;;;;28.85;48.74;101490.94;1602810;88;21098;-55
2021/06/28 05:16:14;;;;;;;5.12;3.80;;;;;;;28.93;48.80;101495.96;1638158;84;21090;-54
2021/06/28 05:18:41;;;;;;;7.28;4.17;;;;;;;29.04;48.22;101490.19;1665930;85;21035;-54
2021/06/28 05:21:07;;;;;;;4.65;4.12;;;;;;;29.13;47.93;101490.70;1654783;85;21542;-59
2021/06/28 05:23:34;;;;;;;7.70;4.50;;;;;;;29.23;47.92;101501.00;1641286;86;21038;-55
2021/06/28 05:26:01;;;;;;;8.25;4.67;;;;;;;29.31;47.70;101502.52;1630868;86;21101;-54
2021/06/28 05:28:27;;;;;;;6.22;4.20;;;;;;;29.35;47.42;101503.94;1604242;88;21081;-58
2021/06/28 05:30:54;;;;;;;8.10;4.72;;;;;;;29.40;47.26;101507.94;1616486;86;21082;-53
2021/06/28 05:33:21;;;;;;;5.30;4.50;;;;;;;29.45;47.23;101502.17;1622567;87;21062;-53
2021/06/28 05:35:48;;;;;;;13.05;5.60;;;;;;;29.50;46.99;101506.12;1631862;86;21063;-59
2021/06/28 05:38:15;;;;;;;7.22;5.30;;;;;;;29.53;47.13;101510.38;1611975;86;21075;-53
2021/06/28 05:40:41;;;;;;;5.50;4.53;;;;;;;29.60;47.27;101514.19;1622895;87;21018;-53
2021/06/28 05:43:08;;;;;;;7.53;4.85;;;;;;;29.66;47.28;101509.13;1615425;87;21076;-60
2021/06/28 05:45:35;;;;;;;7.33;4.85;;;;;;;29.71;47.08;101514.09;1623160;86;21090;-56
2021/06/28 05:48:02;;;;;;;5.47;4.72;;;;;;;29.74;46.95;101517.37;1632160;86;21091;-56
2021/06/28 05:50:29;;;;;;;5.95;5.12;;;;;;;29.77;47.05;101521.61;1632427;86;21050;-55
2021/06/28 05:52:57;;;;;;;5.53;4.87;;;;;;;29.82;46.90;101519.34;1635349;86;21102;-56
2021/06/28 05:55:24;;;;;;;6.37;4.28;;;;;;;29.85;46.35;101521.77;1620683;86;21572;-56
2021/06/28 05:57:51;;;;;;;8.00;4.95;;;;;;;29.86;46.38;101522.14;1617434;88;21010;-55
2021/06/28 06:00:21;;;;;;;7.65;4.53;;;;;;;29.91;46.57;101533.77;1613980;86;21121;-55
2021/06/28 06:02:49;;;;;;;5.25;4.50;;;;;;;29.94;46.17;101537.05;1623620;86;21057;-59
2021/06/28 06:05:16;;;;;;;6.53;4.78;;;;;;;29.97;46.52;101534.55;1612850;87;21094;-56
2021/06/28 06:07:43;;;;;;;5.78;4.55;;;;;;;30.04;46.30;101537.91;1659962;84;21056;-57
2021/06/28 06:10:15;;;;;;;5.33;4.35;;;;;;;30.09;46.03;101543.69;1661496;85;21081;-55
2021/06/28 06:12:42;;;;;;;8.40;4.65;;;;;;;30.16;45.69;101543.49;1632536;85;21537;-55
2021/06/28 06:15:11;;;;;;;5.65;4.50;;;;;;;30.23;45.74;101544.61;1621167;87;21097;-55
2021/06/28 06:17:38;;;;;;;5.37;4.42;;;;;;;30.32;45.53;101550.52;1628887;87;21541;-56
2021/06/28 06:20:07;;;;;;;11.90;5.40;;;;;;;30.47;45.59;101555.84;1632138;87;21064;-58
2021/06/28 06:22:35;;;;;;;6.62;4.85;;;;;;;30.69;45.68;101547.09;1661948;85;21021;-55
2021/06/28 06:25:02;;;;;;;8.05;5.33;;;;;;;30.90;44.89;101551.35;1663774;84;21530;-60
2021/06/28 06:27:29;;;;;;;5.85;4.78;;;;;;;31.07;44.09;101553.78;1639303;85;21126;-55
2021/06/28 06:29:57;;;;;;;6.17;4.25;;;;;;;31.12;44.19;101556.86;1645682;86;21086;-56
2021/06/28 06:32:24;;;;;;;6.78;4.53;;;;;;;31.14;44.19;101553.56;1630518;86;21097;-55
2021/06/28 06:34:51;;;;;;;5.67;4.42;;;;;;;31.10;44.08;101555.67;1640662;86;21045;-56
2021/06/28 06:37:18;;;;;;;7.87;4.72;;;;;;;31.04;43.97;101558.09;1642121;86;21633;-57
2021/06/28 06:39:45;;;;;;;6.22;4.65;;;;;;;30.96;43.96;101563.34;1647308;85;21091;-59
2021/06/28 06:42:12;;;;;;;4.75;4.35;;;;;;;30.88;44.23;101563.23;1650926;85;21129;-56
2021/06/28 06:44:39;;;;;;;8.28;4.53;;;;;;;30.81;44.15;101560.75;1658880;85;21083;-55
2021/06/28 06:47:06;;;;;;;10.43;5.90;;;;;;;30.73;44.06;101564.14;1653157;84;21058;-55
2021/06/28 06:49:33;;;;;;;9.15;4.80;;;;;;;30.68;44.42;101565.56;1654402;84;21526;-60
2021/06/28 06:52:00;;;;;;;5.97;4.75;;;;;;;30.63;44.33;101565.13;1661780;84;21073;-63
2021/06/28 06:54:26;;;;;;;4.97;4.47;;;;;;;30.61;44.12;101565.77;1633418;86;21487;-57
2021/06/28 06:56:54;;;;;;;11.63;4.67;;;;;;;30.57;44.29;101563.02;1651646;85;21051;-56
2021/06/28 06:59:20;;;;;;;6.72;4.55;;;;;;;30.52;44.51;101568.33;1636421;87;21074;-63
2021/06/28 07:01:48;;;;;;;6.33;4.80;;;;;;;30.48;44.22;101564.23;1624208;86;21126;-58
2021/06/28 07:04:15;;;;;;;5.83;4.62;;;;;;;30.46;44.43;101560.84;1633985;87;21145;-56
2021/06/28 07:06:43;;;;;;;4.83;4.42;;;;;;;30.44;44.33;101562.81;1622955;87;21047;-56
2021/06/28 07:09:10;;;;;;;9.45;5.00;;;;;;;30.45;44.46;101556.47;1633696;87;21138;-55
2021/06/28 07:11:36;;;;;;;8.25;5.22;;;;;;;30.45;44.16;101557.81;1627989;87;21523;-56
2021/06/28 07:14:04;;;;;;;5.40;4.90;;;;;;;30.44;44.16;101568.19;1638704;87;21057;-61
2021/06/28 07:16:32;;;;;;;8.73;4.85;;;;;;;30.43;43.86;101568.34;1628187;86;21548;-55
2021/06/28 07:19:00;;;;;;;6.17;4.83;;;;;;;30.44;43.81;101574.91;1627549;87;20999;-62
2021/06/28 07:21:28;;;;;;;7.20;4.58;;;;;;;30.44;43.98;101570.88;1632880;87;21034;-57
2021/06/28 07:23:57;;;;;;;5.08;4.58;;;;;;;30.48;43.98;101568.25;1627193;87;21058;-57
2021/06/28 07:26:25;;;;;;;5.92;4.58;;;;;;;30.57;43.92;101578.65;1613399;87;21027;-58
2021/06/28 07:28:54;;;;;;;6.67;4.70;;;;;;;30.66;44.20;101574.27;1618202;87;21030;-61
2021/06/28 07:31:22;;;;;;;5.12;4.62;;;;;;;30.73;43.36;101574.06;1575697;89;21070;-56
2021/06/28 07:33:48;;;;;;;5.65;5.00;;;;;;;30.79;43.56;101575.66;1550040;91;21662;-58
2021/06/28 07:36:17;;;;;;;9.40;5.00;;;;;;;30.83;43.54;101569.52;1549937;90;21057;-57
2021/06/28 07:38:44;;;;;;;5.42;4.92;;;;;;;30.87;43.45;101572.30;1592918;89;21229;-57
2021/06/28 07:41:11;;;;;;;4.40;4.10;;;;;;;30.91;43.29;101568.33;1598060;89;21126;-58
2021/06/28 07:43:38;;;;;;;8.18;4.25;;;;;;;30.96;42.71;101567.38;1575268;89;21075;-55
2021/06/28 07:46:05;;;;;;;6.15;4.70;;;;;;;30.98;42.68;101569.43;1591129;89;21077;-54
2021/06/28 07:48:33;;;;;;;8.20;5.08;;;;;;;31.00;42.46;101567.44;1573389;89;21190;-56
2021/06/28 07:51:00;;;;;;;6.00;4.72;;;;;;;31.03;42.29;101561.80;1557613;91;21550;-56
2021/06/28 07:53:27;;;;;;;5.87;5.22;;;;;;;31.03;42.52;101555.92;1568904;88;21062;-57
2021/06/28 07:55:54;;;;;;;6.22;4.35;;;;;;;31.05;42.39;101557.12;1573360;89;21018;-60
2021/06/28 07:58:20;;;;;;;9.20;4.70;;;;;;;31.09;42.13;101561.20;1578059;89;21046;-55
2021/06/28 08:00:48;;;;;;;4.72;4.33;;;;;;;31.09;42.09;101563.89;1567254;89;21031;-57
2021/06/28 08:03:14;;;;;;;8.13;4.45;;;;;;;31.09;42.00;101555.83;1584724;90;21077;-55
2021/06/28 08:05:41;;;;;;;5.75;4.22;;;;;;;31.11;41.67;101551.16;1600209;88;21140;-56
2021/06/28 08:08:09;;;;;;;5.12;4.62;;;;;;;31.13;41.80;101549.17;1607894;87;21116;-58
2021/06/28 08:10:36;;;;;;;4.47;4.08;;;;;;;31.16;41.22;101556.95;1595510;89;21120;-57
2021/06/28 08:13:03;;;;;;;4.67;4.17;;;;;;;31.18;41.63;101549.59;1599431;89;21081;-57
2021/06/28 08:15:30;;;;;;;9.68;4.55;;;;;;;31.20;41.50;101549.77;1586293;89;21075;-60
2021/06/28 08:17:57;;;;;;;4.50;4.15;;;;;;;31.22;41.64;101557.19;1585516;88;21115;-57
2021/06/28 08:20:24;;;;;;;5.65;4.33;;;;;;;31.25;41.34;101554.22;1584181;89;21555;-61
2021/06/28 08:22:51;;;;;;;4.97;4.55;;;;;;;31.27;40.54;101558.09;1607122;88;21070;-57
2021/06/28 08:25:19;;;;;;;7.17;4.55;;;;;;;31.30;40.51;101559.16;1566594;90;21129;-56
2021/06/28 08:27:45;;;;;;;7.92;7.12;;;;;;;31.33;40.24;101562.89;1589889;88;21498;-57
2021/06/28 08:30:13;;;;;;;10.00;7.67;;;;;;;31.36;39.94;101567.12;1583201;89;21105;-58
2021/06/28 08:32:40;;;;;;;5.10;4.62;;;;;;;31.38;40.37;101567.34;1597348;88;20998;-58
2021/06/28 08:35:09;;;;;;;7.97;4.30;;;;;;;31.41;39.85;101567.58;1607708;88;21677;-57
2021/06/28 08:37:37;;;;;;;6.47;4.42;;;;;;;31.41;39.81;101572.44;1604672;88;21071;-60
2021/06/28 08:40:06;;;;;;;4.15;3.75;;;;;;;31.42;39.77;101579.53;1634291;85;21533;-56
2021/06/28 08:42:32;;;;;;;5.05;4.55;;;;;;;31.42;39.43;101578.67;1634246;86;20983;-57
2021/06/28 08:44:59;;;;;;;4.37;3.98;;;;;;;31.42;39.46;101578.19;1641517;86;21081;-59
2021/06/28 08:47:28;;;;;;;4.58;4.17;;;;;;;31.41;39.28;101580.51;1629538;87;21042;-56
2021/06/28 08:49:54;;;;;;;6.55;4.08;;;;;;;31.40;38.92;101581.52;1578185;90;21535;-55
2021/06/28 08:52:21;;;;;;;10.00;5.05;;;;;;;31.40;39.24;101586.90;1650390;85;21084;-57
2021/06/28 08:54:48;;;;;;;4.40;3.87;;;;;;;31.38;39.11;101587.52;1660868;84;21032;-57
2021/06/28 08:57:15;;;;;;;13.65;5.22;;;;;;;31.37;38.89;101587.14;1645705;86;21562;-56
2021/06/28 08:59:42;;;;;;;7.95;4.60;;;;;;;31.36;39.16;101585.47;1658919;85;21080;-56
2021/06/28 09:02:09;;;;;;;8.55;4.15;;;;;;;31.36;39.80;101585.47;1657603;84;21469;-55
2021/06/28 09:04:36;;;;;;;5.78;4.55;;;;;;;31.37;39.46;101584.98;1653149;84;21098;-57
2021/06/28 09:07:20;;;;;;;4.35;3.95;;;;;;;31.37;39.24;101589.83;1668555;85;21124;-57
2021/06/28 09:09:47;;;;;;;7.62;4.28;;;;;;;31.38;39.03;101586.17;1635021;86;21153;-56
2021/06/28 09:12:15;;;;;;;5.50;4.55;;;;;;;31.41;39.29;101583.72;1651880;86;21166;-59
2021/06/28 09:14:58;;;;;;;7.67;4.42;;;;;;;31.44;39.14;101585.61;1639063;86;21049;-60
2021/06/28 09:17:34;;;;;;;23.47;4.72;;;;;;;31.45;38.57;101583.77;1652940;85;21093;-61
2021/06/28 09:20:22;;;;;;;5.20;4.70;;;;;;;31.45;38.59;101584.59;1650812;85;21057;-56
2021/06/28 09:22:50;;;;;;;5.83;4.12;;;;;;;31.47;38.69;101589.85;1644931;86;21049;-56
2021/06/28 09:25:35;;;;;;;8.83;4.25;;;;;;;31.47;38.80;101587.98;1647671;86;21030;-57
2021/06/28 09:28:03;;;;;;;15.95;5.60;;;;;;;31.47;38.73;101583.95;1648874;86;21019;-58
2021/06/28 09:30:31;;;;;;;7.12;4.35;;;;;;;31.50;38.67;101582.33;1651057;86;21063;-59
2021/06/28 09:32:59;;;;;;;5.75;4.10;;;;;;;31.52;38.99;101572.75;1646606;86;21568;-61
2021/06/28 09:35:39;;;;;;;5.12;4.20;;;;;;;31.54;38.87;101581.03;1653214;86;21068;-55
2021/06/28 09:38:28;;;;;;;7.50;4.40;;;;;;;31.56;38.89;101587.11;1656385;86;21131;-57
2021/06/28 09:40:55;;;;;;;5.33;4.45;;;;;;;31.56;38.51;101583.08;1645212;85;21105;-55
2021/06/28 09:43:25;;;;;;;4.47;4.03;;;;;;;31.59;38.15;101585.48;1644250;86;21061;-57
2021/06/28 09:45:56;;;;;;;5.33;4.10;;;;;;;31.59;38.28;101586.83;1649436;86;21066;-56
2021/06/28 09:48:28;;;;;;;6.05;4.20;;;;;;;31.62;38.15;101582.48;1649143;86;21038;-57
2021/06/28 09:51:25;;;;;;;5.72;4.10;;;;;;;31.65;37.98;101587.58;1615631;87;21093;-60
2021/06/28 09:54:11;;;;;;;4.05;3.65;;;;;;;31.69;37.45;101579.55;1635753;87;21045;-57
2021/06/28 09:56:45;;;;;;;4.08;3.60;;;;;;;31.72;37.89;101576.55;1569113;91;21626;-60
2021/06/28 09:59:23;;;;;;;6.20;4.10;;;;;;;31.74;37.46;101574.55;1566884;90;21063;-57
2021/06/28 10:02:14;;;;;;;4.20;3.62;;;;;;;31.76;37.17;101572.55;1562088;91;21042;-58
2021/06/28 10:07:39;;;;;;;4.62;4.15;;;;;;;31.80;37.68;101572.60;1469257;97;21137;-56
2021/06/28 10:10:28;;;;;;;6.92;4.10;;;;;;;31.84;37.04;101577.21;1465162;96;21155;-57
2021/06/28 10:13:00;;;;;;;4.75;4.03;;;;;;;31.85;36.86;101579.74;1459910;96;21180;-56
2021/06/28 10:15:36;;;;;;;5.45;3.45;;;;;;;31.86;37.08;101580.59;1422627;100;21149;-56
2021/06/28 10:18:04;;;;;;;5.92;4.17;;;;;;;31.88;36.39;101578.08;1434349;98;21127;-59
2021/06/28 10:20:33;;;;;;;4.55;3.67;;;;;;;31.91;36.89;101579.14;1415784;100;21729;-56
2021/06/28 10:23:00;;;;;;;4.95;4.10;;;;;;;31.91;37.22;101576.45;1459419;97;21756;-56
2021/06/28 10:25:28;;;;;;;6.58;4.37;;;;;;;31.91;37.75;101572.89;1436640;99;21092;-56
2021/06/28 10:27:55;;;;;;;8.95;4.58;;;;;;;31.90;37.74;101574.73;1428662;99;21118;-55
2021/06/28 10:30:24;;;;;;;4.87;4.35;;;;;;;31.93;37.63;101581.20;1424601;98;21131;-59
2021/06/28 10:32:57;;;;;;;4.78;3.92;;;;;;;31.95;37.40;101580.56;1402508;101;21181;-56
2021/06/28 10:35:32;;;;;;;4.65;4.25;;;;;;;31.96;37.34;101587.62;1445087;97;21269;-60
2021/06/28 10:38:01;;;;;;;5.92;4.28;;;;;;;31.98;37.81;101583.45;1452678;98;21628;-55
2021/06/28 10:40:28;;;;;;;6.55;4.20;;;;;;;32.00;37.68;101577.42;1454820;96;21651;-57
2021/06/28 10:42:57;;;;;;;5.55;3.83;;;;;;;32.03;37.28;101579.79;1457819;94;21152;-56
2021/06/28 10:45:42;;;;;;;4.40;4.00;;;;;;;32.06;37.52;101585.74;1522952;93;22356;-56
2021/06/28 10:48:17;;;;;;;12.37;4.67;;;;;;;32.09;37.29;101586.77;1500770;94;21068;-55
2021/06/28 10:50:54;;;;;;;5.50;4.65;;;;;;;32.12;37.56;101583.42;1476606;95;21095;-58
2021/06/28 10:53:39;;;;;;;5.35;4.45;;;;;;;32.17;37.25;101587.34;1513199;94;21161;-56
2021/06/28 10:56:27;;;;;;;5.47;4.37;;;;;;;32.22;37.46;101581.50;1525922;93;21110;-55
2021/06/28 10:58:58;;;;;;;6.47;3.83;;;;;;;32.27;36.98;101583.25;1523190;93;21181;-59
2021/06/28 11:01:39;;;;;;;11.00;5.05;;;;;;;32.28;36.49;101575.02;1521476;94;21062;-57
2021/06/28 11:04:10;;;;;;;5.58;3.92;;;;;;;32.30;36.91;101576.20;1532160;90;21089;-56
2021/06/28 11:06:46;;;;;;;5.67;4.72;;;;;;;32.34;36.97;101582.97;1586142;89;21951;-58
2021/06/28 11:09:13;;;;;;;7.40;5.03;;;;;;;32.38;36.62;101584.35;1630946;85;21569;-56
2021/06/28 11:11:48;;;;;;;7.60;3.98;;;;;;;32.39;36.99;101577.98;1632161;87;21076;-57
2021/06/28 11:14:27;;;;;;;5.47;4.25;;;;;;;32.41;37.00;101581.37;1625331;87;21514;-58
2021/06/28 11:17:09;;;;;;;5.25;4.00;;;;;;;32.42;36.32;101573.13;1616138;86;21101;-57
2021/06/28 11:19:55;;;;;;;7.90;4.40;;;;;;;32.45;35.87;101584.09;1584357;87;21912;-56
2021/06/28 11:22:31;;;;;;;6.05;4.00;;;;;;;32.45;36.25;101574.17;1612146;88;21062;-56
2021/06/28 11:25:05;;;;;;;4.78;4.37;;;;;;;32.49;35.80;101584.16;1615594;88;21107;-55
2021/06/28 11:27:32;;;;;;;7.62;4.67;;;;;;;32.49;35.77;101582.33;1595259;88;21120;-57
2021/06/28 11:29:59;;;;;;;6.92;3.85;;;;;;;32.50;35.48;101577.79;1580926;90;21081;-55
2021/06/28 11:32:29;;;;;;;5.25;3.80;;;;;;;32.51;35.69;101582.16;1598104;88;21561;-55
2021/06/28 11:34:56;;;;;;;6.15;3.72;;;;;;;32.54;35.34;101580.52;1567041;91;21252;-56